createdAt,value
2023-05-03T00:00:30.263Z,9.20
2023-05-03T00:03:52.106Z,9.10
2023-05-03T00:07:15.031Z,9.00
2023-05-03T00:10:36.614Z,8.90
2023-05-03T00:13:58.199Z,8.90
2023-05-03T00:17:19.795Z,8.80
2023-05-03T00:20:44.413Z,8.80
2023-05-03T00:24:07.661Z,8.80
2023-05-03T00:27:29.260Z,8.70
2023-05-03T00:30:50.890Z,8.70
2023-05-03T00:34:12.511Z,8.70
2023-05-03T00:37:34.088Z,8.70
2023-05-03T00:40:57.001Z,8.70
2023-05-03T00:44:18.745Z,8.70
2023-05-03T00:47:41.121Z,8.60
2023-05-03T00:51:03.609Z,8.60
2023-05-03T00:54:27.047Z,8.60
2023-05-03T00:57:49.969Z,8.60
2023-05-03T01:01:11.796Z,8.60
2023-05-03T01:04:33.412Z,8.70
2023-05-03T01:07:59.749Z,8.70
2023-05-03T01:11:23.867Z,8.70
2023-05-03T01:14:53.122Z,8.80
2023-05-03T01:18:16.088Z,8.80
2023-05-03T01:21:37.720Z,8.80
2023-05-03T01:25:06.792Z,8.80
2023-05-03T01:28:28.596Z,8.80
2023-05-03T01:31:53.259Z,8.80
2023-05-03T01:35:17.864Z,8.80
2023-05-03T01:38:39.599Z,8.80
2023-05-03T01:42:03.796Z,8.80
2023-05-03T01:45:25.731Z,8.70
2023-05-03T01:48:47.540Z,8.60
2023-05-03T01:52:09.931Z,8.60
2023-05-03T01:55:31.645Z,8.50
2023-05-03T01:58:54.689Z,8.50
2023-05-03T02:02:16.400Z,8.40
2023-05-03T02:05:38.291Z,8.30
2023-05-03T02:09:00.023Z,8.20
2023-05-03T02:12:22.653Z,8.20
2023-05-03T02:15:45.947Z,8.10
2023-05-03T02:19:07.527Z,8.10
2023-05-03T02:22:29.112Z,8.00
2023-05-03T02:25:50.731Z,8.00
2023-05-03T02:29:12.279Z,8.00
2023-05-03T02:32:35.286Z,8.00
2023-05-03T02:35:56.958Z,7.90
2023-05-03T02:39:18.519Z,7.80
2023-05-03T02:46:02.267Z,7.70
2023-05-03T02:49:25.294Z,7.60
2023-05-03T02:52:47.514Z,7.60
2023-05-03T02:56:12.798Z,7.50
2023-05-03T02:59:36.880Z,7.40
2023-05-03T03:03:02.580Z,7.50
2023-05-03T03:06:26.235Z,7.40
2023-05-03T03:09:48.119Z,7.40
2023-05-03T03:13:09.682Z,7.40
2023-05-03T03:16:31.455Z,7.40
2023-05-03T03:19:53.063Z,7.40
2023-05-03T03:23:15.988Z,7.40
2023-05-03T03:26:37.572Z,7.40
2023-05-03T03:29:59.224Z,7.40
2023-05-03T03:33:22.214Z,7.30
2023-05-03T03:36:45.954Z,7.30
2023-05-03T03:40:09.789Z,7.30
2023-05-03T03:43:31.395Z,7.30
2023-05-03T03:46:53.924Z,7.30
2023-05-03T03:50:15.787Z,7.30
2023-05-03T03:53:37.388Z,7.30
2023-05-03T03:57:00.324Z,7.20
2023-05-03T04:00:22.022Z,7.30
2023-05-03T04:03:45.065Z,7.30
2023-05-03T04:07:07.728Z,7.40
2023-05-03T04:10:30.983Z,7.50
2023-05-03T04:13:53.961Z,7.60
2023-05-03T04:17:15.568Z,7.70
2023-05-03T04:20:42.234Z,7.80
2023-05-03T04:24:04.626Z,7.90
2023-05-03T04:27:26.205Z,8.00
2023-05-03T04:30:52.990Z,8.10
2023-05-03T04:34:14.727Z,8.20
2023-05-03T04:37:36.662Z,8.40
2023-05-03T04:40:58.272Z,8.50
2023-05-03T04:44:19.934Z,8.60
2023-05-03T04:47:42.900Z,8.60
2023-05-03T04:51:04.852Z,8.70
2023-05-03T04:54:26.637Z,8.80
2023-05-03T04:57:48.360Z,8.80
2023-05-03T05:01:09.971Z,8.90
2023-05-03T05:04:32.895Z,9.10
2023-05-03T05:07:54.464Z,9.20
2023-05-03T05:11:16.069Z,9.30
2023-05-03T05:14:37.662Z,9.40
2023-05-03T05:17:59.378Z,9.50
2023-05-03T05:21:22.360Z,9.60
2023-05-03T05:24:43.948Z,9.70
2023-05-03T05:28:05.533Z,9.80
2023-05-03T05:31:27.161Z,10.00
2023-05-03T05:34:48.850Z,10.00
2023-05-03T05:38:11.950Z,10.10
2023-05-03T05:41:33.599Z,10.20
2023-05-03T05:44:55.152Z,10.30
2023-05-03T05:48:16.814Z,10.40
2023-05-03T05:51:38.840Z,10.60
2023-05-03T05:55:01.801Z,10.60
2023-05-03T05:58:23.398Z,10.70
2023-05-03T06:01:45.092Z,10.70
2023-05-03T06:05:07.778Z,10.80
2023-05-03T06:08:29.677Z,11.30
2023-05-03T06:11:52.624Z,11.50
2023-05-03T06:15:14.246Z,11.70
2023-05-03T06:18:35.857Z,11.60
2023-05-03T06:21:57.427Z,11.40
2023-05-03T06:25:19.025Z,11.20
2023-05-03T06:28:41.956Z,11.40
2023-05-03T06:32:03.626Z,11.70
2023-05-03T06:35:25.214Z,12.00
2023-05-03T06:38:47.790Z,12.30
2023-05-03T06:42:09.846Z,13.00
2023-05-03T06:45:33.549Z,13.90
2023-05-03T06:48:55.421Z,15.10
2023-05-03T06:52:17.059Z,16.20
2023-05-03T06:55:38.627Z,17.30
2023-05-03T06:59:00.264Z,16.30
2023-05-03T07:02:23.247Z,17.00
2023-05-03T07:05:44.834Z,18.50
2023-05-03T07:09:06.458Z,19.30
2023-05-03T07:12:28.020Z,19.80
2023-05-03T07:15:50.079Z,19.60
2023-05-03T07:19:13.057Z,20.20
2023-05-03T07:22:34.628Z,21.40
2023-05-03T07:25:56.214Z,21.80
2023-05-03T07:29:17.817Z,21.90
2023-05-03T07:32:39.447Z,22.30
2023-05-03T07:36:02.541Z,23.00
2023-05-03T07:39:24.134Z,23.00
2023-05-03T07:42:45.717Z,23.00
2023-05-03T07:46:07.527Z,22.60
2023-05-03T07:49:29.159Z,22.60
2023-05-03T07:52:52.106Z,22.70
2023-05-03T07:56:13.686Z,22.70
2023-05-03T07:59:35.276Z,21.10
2023-05-03T08:02:57.135Z,20.50
2023-05-03T08:06:19.427Z,19.60
2023-05-03T08:09:42.994Z,19.90
2023-05-03T08:13:05.166Z,21.60
2023-05-03T08:16:26.913Z,22.50
2023-05-03T08:19:48.698Z,23.60
2023-05-03T08:23:10.980Z,24.10
2023-05-03T08:26:35.601Z,25.00
2023-05-03T08:29:57.615Z,25.70
2023-05-03T08:33:19.420Z,25.90
2023-05-03T08:36:42.201Z,26.10
2023-05-03T08:40:04.903Z,25.80
2023-05-03T08:43:29.032Z,25.80
2023-05-03T08:46:54.282Z,25.70
2023-05-03T08:50:16.203Z,26.10
2023-05-03T08:53:37.810Z,25.40
2023-05-03T08:56:59.399Z,25.00
2023-05-03T09:00:27.934Z,25.00
2023-05-03T09:03:50.214Z,24.90
2023-05-03T09:07:12.371Z,22.90
2023-05-03T09:10:36.888Z,22.20
2023-05-03T09:14:08.398Z,22.60
2023-05-03T09:17:31.387Z,23.00
2023-05-03T09:20:58.628Z,22.40
2023-05-03T09:24:22.137Z,22.70
2023-05-03T09:27:44.148Z,22.60
2023-05-03T09:31:07.332Z,22.40
2023-05-03T09:34:30.971Z,22.30
2023-05-03T09:37:52.827Z,22.10
2023-05-03T09:41:14.583Z,22.70
2023-05-03T09:44:40.433Z,22.60
2023-05-03T09:48:02.718Z,22.60
2023-05-03T09:51:30.640Z,22.50
2023-05-03T09:54:53.829Z,22.60
2023-05-03T09:58:15.443Z,22.90
2023-05-03T10:01:37.195Z,23.10
2023-05-03T10:04:58.807Z,23.40
2023-05-03T10:08:26.200Z,23.00
2023-05-03T10:11:48.465Z,22.40
2023-05-03T10:15:11.113Z,23.00
2023-05-03T10:18:35.997Z,22.90
2023-05-03T10:22:02.208Z,22.00
2023-05-03T10:25:25.553Z,21.10
2023-05-03T10:28:48.354Z,20.40
2023-05-03T10:32:28.587Z,20.70
2023-05-03T10:35:51.105Z,20.80
2023-05-03T10:39:14.191Z,20.60
2023-05-03T10:42:38.674Z,19.80
2023-05-03T10:46:00.915Z,19.20
2023-05-03T10:49:23.378Z,19.00
2023-05-03T10:52:45.401Z,18.70
2023-05-03T10:56:07.643Z,18.40
2023-05-03T10:59:45.840Z,18.20
2023-05-03T11:03:25.762Z,18.20
2023-05-03T11:06:47.432Z,18.60
2023-05-03T11:10:16.283Z,18.30
2023-05-03T11:13:37.997Z,17.60
2023-05-03T11:17:01.185Z,17.40
2023-05-03T11:20:25.298Z,17.30
2023-05-03T11:23:47.677Z,17.10
2023-05-03T11:27:11.093Z,16.90
2023-05-03T11:30:34.322Z,17.00
2023-05-03T11:33:57.351Z,17.20
2023-05-03T11:37:19.118Z,17.70
2023-05-03T11:40:41.460Z,18.10
2023-05-03T11:44:15.266Z,18.00
2023-05-03T11:47:38.417Z,17.90
2023-05-03T11:51:06.653Z,17.60
2023-05-03T11:54:28.247Z,17.60
2023-05-03T11:57:50.730Z,17.60
2023-05-03T12:01:13.103Z,17.60
2023-05-03T12:04:36.290Z,17.90
2023-05-03T12:08:00.053Z,18.10
2023-05-03T12:11:26.161Z,18.30
2023-05-03T12:14:57.741Z,18.50
2023-05-03T12:18:20.776Z,18.70
2023-05-03T12:21:46.964Z,18.90
2023-05-03T12:25:16.377Z,18.80
2023-05-03T12:28:38.300Z,18.70
2023-05-03T12:31:59.942Z,18.50
2023-05-03T12:35:22.183Z,18.20
2023-05-03T12:38:45.625Z,18.10
2023-05-03T12:42:09.790Z,18.00
2023-05-03T12:45:34.494Z,18.00
2023-05-03T12:49:00.215Z,18.10
2023-05-03T12:52:37.494Z,18.30
2023-05-03T12:56:00.553Z,18.70
2023-05-03T13:06:14.764Z,19.20
2023-05-03T13:13:20.726Z,18.30
2023-05-03T13:16:43.698Z,18.00
2023-05-03T13:20:06.321Z,18.10
2023-05-03T13:23:28.010Z,18.20
2023-05-03T13:26:51.307Z,18.30
2023-05-03T13:30:13.098Z,18.10
2023-05-03T13:33:36.056Z,18.00
2023-05-03T13:36:59.752Z,18.10
2023-05-03T13:40:21.332Z,18.40
2023-05-03T13:43:43.206Z,18.80
2023-05-03T13:47:06.700Z,19.00
2023-05-03T13:50:32.666Z,19.30
2023-05-03T13:53:55.105Z,19.00
2023-05-03T13:57:16.806Z,18.90
2023-05-03T14:00:38.440Z,18.70
2023-05-03T14:04:00.169Z,18.70
2023-05-03T14:07:23.123Z,18.80
2023-05-03T14:10:44.743Z,18.60
2023-05-03T14:14:06.396Z,18.50
2023-05-03T14:17:31.872Z,18.70
2023-05-03T14:20:53.806Z,19.10
2023-05-03T14:24:21.354Z,19.40
2023-05-03T14:27:43.700Z,19.50
2023-05-03T14:31:05.416Z,19.30
2023-05-03T14:34:27.030Z,19.00
2023-05-03T14:37:48.743Z,18.70
2023-05-03T14:41:11.668Z,18.50
2023-05-03T14:44:34.381Z,18.50
2023-05-03T14:47:56.978Z,18.60
2023-05-03T14:51:18.610Z,18.50
2023-05-03T14:54:43.884Z,18.50
2023-05-03T14:58:09.592Z,18.40
2023-05-03T15:01:32.861Z,18.50
2023-05-03T15:04:54.523Z,18.60
2023-05-03T15:08:18.200Z,18.70
2023-05-03T15:11:40.005Z,18.80
2023-05-03T15:15:05.247Z,18.80
2023-05-03T15:18:28.046Z,18.90
2023-05-03T15:21:51.164Z,18.80
2023-05-03T15:25:14.095Z,18.70
2023-05-03T15:28:36.294Z,18.40
2023-05-03T15:31:59.280Z,18.30
2023-05-03T15:35:25.329Z,18.30
2023-05-03T15:38:47.241Z,18.30
2023-05-03T15:42:08.816Z,18.30
2023-05-03T15:45:31.661Z,18.40
2023-05-03T15:48:55.335Z,18.50
2023-05-03T15:52:17.231Z,18.60
2023-05-03T15:55:38.885Z,18.60
2023-05-03T15:59:00.796Z,18.70
2023-05-03T16:02:22.532Z,18.60
2023-05-03T16:05:45.489Z,18.50
2023-05-03T16:09:08.463Z,18.50
2023-05-03T16:12:30.108Z,18.50
2023-05-03T16:15:51.850Z,18.50
2023-05-03T16:19:13.730Z,18.40
2023-05-03T16:22:37.925Z,18.50
2023-05-03T16:25:59.898Z,18.50
2023-05-03T16:29:21.581Z,18.60
2023-05-03T16:32:43.316Z,18.50
2023-05-03T16:36:05.972Z,18.40
2023-05-03T16:39:29.096Z,18.30
2023-05-03T16:42:51.428Z,18.10
2023-05-03T16:46:14.188Z,18.00
2023-05-03T16:49:36.157Z,17.90
2023-05-03T16:52:58.081Z,17.80
2023-05-03T16:56:21.475Z,17.70
2023-05-03T16:59:44.253Z,17.70
2023-05-03T17:03:07.402Z,17.70
2023-05-03T17:06:29.368Z,17.70
2023-05-03T17:09:50.967Z,17.70
2023-05-03T17:13:14.006Z,17.70
2023-05-03T17:16:40.002Z,17.60
2023-05-03T17:20:05.421Z,17.60
2023-05-03T17:23:30.644Z,17.60
2023-05-03T17:26:52.674Z,17.60
2023-05-03T17:30:17.775Z,17.50
2023-05-03T17:33:45.170Z,17.40
2023-05-03T17:37:07.122Z,17.40
2023-05-03T17:40:28.914Z,17.30
2023-05-03T17:43:51.571Z,17.20
2023-05-03T17:47:15.189Z,17.10
2023-05-03T17:50:36.833Z,17.10
2023-05-03T17:53:58.628Z,17.00
2023-05-03T17:57:20.216Z,16.90
2023-05-03T18:00:41.808Z,16.80
2023-05-03T18:04:04.921Z,16.70
2023-05-03T18:07:26.681Z,16.60
2023-05-03T18:10:48.300Z,16.50
2023-05-03T18:14:10.036Z,16.40
2023-05-03T18:17:31.768Z,16.30
2023-05-03T18:21:01.149Z,16.10
2023-05-03T18:24:23.049Z,16.00
2023-05-03T18:27:44.685Z,15.90
2023-05-03T18:31:06.305Z,15.80
2023-05-03T18:34:28.233Z,15.70
2023-05-03T18:37:51.262Z,15.60
2023-05-03T18:41:13.603Z,15.40
2023-05-03T18:44:38.248Z,15.30
2023-05-03T18:48:00.555Z,15.10
2023-05-03T18:51:22.582Z,14.90
2023-05-03T18:54:50.123Z,14.80
2023-05-03T18:58:12.081Z,14.70
2023-05-03T19:01:35.394Z,14.50
2023-05-03T19:04:57.702Z,14.50
2023-05-03T19:08:19.485Z,14.40
2023-05-03T19:11:42.631Z,14.30
2023-05-03T19:15:05.432Z,14.20
2023-05-03T19:18:28.411Z,14.00
2023-05-03T19:21:50.062Z,13.90
2023-05-03T19:25:11.666Z,13.90
2023-05-03T19:28:35.232Z,13.80
2023-05-03T19:31:57.445Z,13.70
2023-05-03T19:35:19.386Z,13.70
2023-05-03T19:38:41.543Z,13.70
2023-05-03T19:42:04.558Z,13.60
2023-05-03T19:45:31.661Z,13.60
2023-05-03T19:48:53.814Z,13.60
2023-05-03T19:52:16.916Z,13.60
2023-05-03T19:55:38.591Z,13.50
2023-05-03T19:59:01.470Z,13.50
2023-05-03T20:02:25.344Z,13.40
2023-05-03T20:05:47.254Z,13.40
2023-05-03T20:09:08.852Z,13.40
2023-05-03T20:12:30.889Z,13.30
2023-05-03T20:15:52.795Z,13.30
2023-05-03T20:19:15.827Z,13.20
2023-05-03T20:22:37.460Z,13.10
2023-05-03T20:25:59.030Z,13.00
2023-05-03T20:29:21.498Z,12.90
2023-05-03T20:32:43.260Z,12.80
2023-05-03T20:36:07.440Z,12.60
2023-05-03T20:39:29.024Z,12.50
2023-05-03T20:42:50.808Z,12.40
2023-05-03T20:46:12.432Z,12.30
2023-05-03T20:49:34.078Z,12.30
2023-05-03T20:52:57.021Z,12.30
2023-05-03T20:56:18.803Z,12.30
2023-05-03T20:59:41.573Z,12.20
2023-05-03T21:03:03.637Z,12.20
2023-05-03T21:06:25.745Z,12.20
2023-05-03T21:09:48.739Z,12.20
2023-05-03T21:13:10.650Z,12.20
2023-05-03T21:16:32.342Z,12.10
2023-05-03T21:19:53.941Z,12.10
2023-05-03T21:23:15.519Z,12.10
2023-05-03T21:26:38.464Z,11.90
2023-05-03T21:30:00.018Z,11.80
2023-05-03T21:33:21.739Z,11.70
2023-05-03T21:36:43.343Z,11.60
2023-05-03T21:40:05.695Z,11.50
2023-05-03T21:43:28.641Z,11.50
2023-05-03T21:46:50.342Z,11.40
2023-05-03T21:50:12.070Z,11.30
2023-05-03T21:53:33.658Z,11.10
2023-05-03T21:56:55.252Z,11.00
2023-05-03T22:00:18.544Z,11.00
2023-05-03T22:03:40.223Z,10.90
2023-05-03T22:07:01.852Z,10.90
2023-05-03T22:10:23.401Z,10.90
2023-05-03T22:14:03.086Z,11.00
2023-05-03T22:17:28.286Z,11.10
2023-05-03T22:20:49.988Z,11.10
2023-05-03T22:24:11.619Z,11.10
2023-05-03T22:27:33.184Z,11.00
2023-05-03T22:30:54.781Z,10.90
2023-05-03T22:34:17.754Z,10.70
2023-05-03T22:37:39.441Z,10.70
2023-05-03T22:41:01.021Z,10.50
2023-05-03T22:44:22.590Z,10.40
2023-05-03T22:47:44.179Z,10.20
2023-05-03T22:51:07.224Z,10.10
2023-05-03T22:54:28.807Z,10.00
2023-05-03T22:57:50.391Z,9.90
2023-05-03T23:01:12.103Z,10.00
2023-05-03T23:04:33.714Z,9.90
2023-05-03T23:07:56.615Z,9.90
2023-05-03T23:11:18.200Z,9.90
2023-05-03T23:14:39.888Z,9.80
2023-05-03T23:18:01.511Z,9.70
2023-05-03T23:21:23.140Z,9.70
2023-05-03T23:24:46.063Z,9.80
2023-05-03T23:28:07.781Z,9.80
2023-05-03T23:31:31.627Z,9.80
2023-05-03T23:34:55.557Z,9.70
2023-05-03T23:38:17.151Z,9.70
2023-05-03T23:41:40.082Z,9.60
2023-05-03T23:45:01.651Z,9.50
2023-05-03T23:48:23.246Z,9.40
2023-05-03T23:51:45.042Z,9.30
2023-05-03T23:55:07.462Z,9.20
2023-05-03T23:58:30.383Z,9.10
